Time;durP1;ratioP1;P1;durP2;ratioP2;P2;SDS_P1;SDS_P2;PMS_P1;PMS_P2;Temp;Humidity;BMP_temperature;BMP_pressure;BME280_temperature;BME280_humidity;BME280_pressure;Samples;Min_cycle;Max_cycle;Signal;HPM_P1;HPM_P2
2023/03/13 00:04:39;;;;;;;3.03;2.58;;;;;;;;;;10371516;28;20025;-58
2023/03/13 00:09:40;;;;;;;5.28;2.38;;;;;;;;;;10371299;28;20022;-58
2023/03/13 00:14:41;;;;;;;5.43;2.70;;;;;;;;;;10371564;28;20033;-58
2023/03/13 00:19:41;;;;;;;5.57;2.53;;;;;;;;;;10365455;28;20030;-60
2023/03/13 00:24:42;;;;;;;5.22;2.30;;;;;;;;;;10370940;28;20022;-58
2023/03/13 00:29:43;;;;;;;3.53;2.80;;;;;;;;;;10371767;28;20033;-58
2023/03/13 00:34:43;;;;;;;2.97;2.45;;;;;;;;;;10371004;28;20096;-59
2023/03/13 00:39:44;;;;;;;7.05;2.70;;;;;;;;;;10370630;28;20385;-59
2023/03/13 00:44:44;;;;;;;4.72;2.58;;;;;;;;;;10369558;28;20567;-59
2023/03/13 00:49:45;;;;;;;3.83;2.75;;;;;;;;;;10369760;28;20096;-59
2023/03/13 00:54:45;;;;;;;4.53;2.50;;;;;;;;;;10369510;28;20018;-59
2023/03/13 00:59:46;;;;;;;5.43;2.53;;;;;;;;;;10369405;28;20038;-59
2023/03/13 01:04:46;;;;;;;3.53;2.70;;;;;;;;;;10369230;28;20034;-58
2023/03/13 01:09:47;;;;;;;4.10;2.60;;;;;;;;;;10369074;28;20018;-58
2023/03/13 01:14:50;;;;;;;4.38;2.67;;;;;;;;;;10368783;28;20171;-58
2023/03/13 01:19:50;;;;;;;3.80;2.58;;;;;;;;;;10367892;28;20528;-59
2023/03/13 01:24:52;;;;;;;5.35;2.70;;;;;;;;;;10368580;28;20025;-58
2023/03/13 01:29:53;;;;;;;4.60;2.55;;;;;;;;;;10369060;28;20029;-59
2023/03/13 01:34:53;;;;;;;3.85;2.55;;;;;;;;;;10368785;28;20477;-58
2023/03/13 01:39:54;;;;;;;3.85;2.28;;;;;;;;;;10368405;28;20429;-58
2023/03/13 01:44:56;;;;;;;5.85;2.47;;;;;;;;;;10368078;28;20053;-59
2023/03/13 01:49:57;;;;;;;4.53;2.60;;;;;;;;;;10367922;28;20633;-58
2023/03/13 01:55:14;;;;;;;5.25;2.70;;;;;;;;;;10366518;28;20029;-58
2023/03/13 02:00:23;;;;;;;4.20;2.80;;;;;;;;;;10368656;28;20029;-58
2023/03/13 02:05:27;;;;;;;2.30;2.10;;;;;;;;;;10366515;28;20030;-58
2023/03/13 02:10:30;;;;;;;7.45;2.80;;;;;;;;;;10365465;28;20093;-58
2023/03/13 02:15:32;;;;;;;3.08;2.30;;;;;;;;;;10367497;28;20413;-58
2023/03/13 02:20:33;;;;;;;5.28;2.75;;;;;;;;;;10366131;28;20421;-58
2023/03/13 02:25:45;;;;;;;4.50;2.67;;;;;;;;;;10365996;28;20042;-58
2023/03/13 02:30:48;;;;;;;6.32;2.17;;;;;;;;;;10366287;28;20053;-58
2023/03/13 02:35:49;;;;;;;4.05;2.47;;;;;;;;;;10374741;28;20030;-58
2023/03/13 02:40:52;;;;;;;3.15;2.45;;;;;;;;;;10375054;28;20030;-58
2023/03/13 02:46:10;;;;;;;6.18;3.03;;;;;;;;;;10374417;28;20042;-58
2023/03/13 02:51:30;;;;;;;3.53;2.37;;;;;;;;;;10375082;28;20309;-58
2023/03/13 02:56:35;;;;;;;2.88;2.60;;;;;;;;;;10373050;28;20087;-58
2023/03/13 03:01:35;;;;;;;3.67;2.47;;;;;;;;;;10373196;28;20057;-58
2023/03/13 03:06:36;;;;;;;2.67;1.98;;;;;;;;;;10373657;28;20413;-58
2023/03/13 03:11:37;;;;;;;5.38;2.67;;;;;;;;;;10370080;28;20374;-58
2023/03/13 03:16:38;;;;;;;3.80;2.60;;;;;;;;;;10373895;28;20022;-59
2023/03/13 03:21:39;;;;;;;3.22;2.50;;;;;;;;;;10373601;28;20025;-58
2023/03/13 03:26:39;;;;;;;2.40;2.13;;;;;;;;;;10373619;28;20034;-58
2023/03/13 03:31:40;;;;;;;4.43;2.25;;;;;;;;;;10373379;28;20048;-58
2023/03/13 03:36:41;;;;;;;3.60;2.50;;;;;;;;;;10373162;28;20048;-58
2023/03/13 03:41:41;;;;;;;2.47;2.28;;;;;;;;;;10372930;28;20040;-58
2023/03/13 03:46:42;;;;;;;2.72;2.20;;;;;;;;;;10371248;28;20052;-58
2023/03/13 03:51:43;;;;;;;3.47;2.50;;;;;;;;;;10372343;28;20049;-59
2023/03/13 03:56:43;;;;;;;2.40;2.17;;;;;;;;;;10371836;28;20397;-59
2023/03/13 04:01:44;;;;;;;4.72;2.60;;;;;;;;;;10371661;28;20037;-58
2023/03/13 04:06:44;;;;;;;2.65;2.22;;;;;;;;;;10371962;28;20038;-58
2023/03/13 04:11:45;;;;;;;4.05;2.80;;;;;;;;;;10371127;28;20042;-58
2023/03/13 04:16:45;;;;;;;3.60;2.53;;;;;;;;;;10371466;28;20034;-58
2023/03/13 04:21:46;;;;;;;2.88;2.33;;;;;;;;;;10370969;28;20022;-59
2023/03/13 04:26:46;;;;;;;3.47;2.28;;;;;;;;;;10362240;28;20049;-59
2023/03/13 04:31:47;;;;;;;2.58;2.10;;;;;;;;;;10370157;28;20296;-59
2023/03/13 04:36:48;;;;;;;3.20;2.47;;;;;;;;;;10370323;28;20037;-59
2023/03/13 04:41:48;;;;;;;3.13;2.20;;;;;;;;;;10370500;28;20030;-58
2023/03/13 04:46:49;;;;;;;2.53;1.95;;;;;;;;;;10370143;28;20042;-58
2023/03/13 04:51:49;;;;;;;3.65;2.58;;;;;;;;;;10369939;28;20454;-59
2023/03/13 04:56:50;;;;;;;3.97;2.33;;;;;;;;;;10369267;28;20037;-59
2023/03/13 05:01:50;;;;;;;5.43;2.22;;;;;;;;;;10369184;28;20034;-59
2023/03/13 05:06:51;;;;;;;3.03;2.08;;;;;;;;;;10369561;28;20057;-58
2023/03/13 05:11:51;;;;;;;2.90;2.00;;;;;;;;;;10368959;28;20581;-58
2023/03/13 05:16:52;;;;;;;2.35;2.13;;;;;;;;;;10368702;28;20497;-58
2023/03/13 05:21:53;;;;;;;2.80;2.25;;;;;;;;;;10369085;28;20025;-58
2023/03/13 05:26:53;;;;;;;2.50;1.92;;;;;;;;;;10369070;28;20378;-58
2023/03/13 05:31:54;;;;;;;3.05;1.92;;;;;;;;;;10368627;28;20378;-58
2023/03/13 05:36:54;;;;;;;2.20;2.00;;;;;;;;;;10368631;28;20030;-58
2023/03/13 05:41:55;;;;;;;2.55;2.20;;;;;;;;;;10368374;28;20073;-58
2023/03/13 05:46:56;;;;;;;2.60;2.30;;;;;;;;;;10367943;28;20050;-58
2023/03/13 05:51:56;;;;;;;3.25;2.15;;;;;;;;;;10368349;28;20265;-58
2023/03/13 05:56:57;;;;;;;2.00;1.85;;;;;;;;;;10366932;28;20033;-58
2023/03/13 06:01:57;;;;;;;5.68;2.22;;;;;;;;;;10358449;28;20033;-59
2023/03/13 06:06:58;;;;;;;4.28;2.15;;;;;;;;;;10369437;28;20026;-59
2023/03/13 06:11:58;;;;;;;2.10;1.90;;;;;;;;;;10375950;28;20437;-59
2023/03/13 06:16:59;;;;;;;2.72;2.13;;;;;;;;;;10375678;28;20113;-59
2023/03/13 06:22:00;;;;;;;4.20;1.98;;;;;;;;;;10375466;28;20022;-59
2023/03/13 06:27:00;;;;;;;2.58;2.10;;;;;;;;;;10375221;28;20481;-59
2023/03/13 06:32:13;;;;;;;5.72;2.42;;;;;;;;;;10375644;28;20358;-58
2023/03/13 06:37:13;;;;;;;12.77;2.65;;;;;;;;;;10374606;28;20180;-59
2023/03/13 06:42:14;;;;;;;6.82;2.65;;;;;;;;;;10374753;28;20117;-59
2023/03/13 06:47:14;;;;;;;3.70;2.38;;;;;;;;;;10374143;28;20103;-60
2023/03/13 06:52:15;;;;;;;9.70;4.50;;;;;;;;;;10373708;28;20385;-59
2023/03/13 06:57:16;;;;;;;10.30;4.50;;;;;;;;;;10373416;28;20470;-61
2023/03/13 07:02:16;;;;;;;16.00;4.72;;;;;;;;;;10374116;28;20410;-62
2023/03/13 07:07:17;;;;;;;12.07;4.68;;;;;;;;;;10367648;28;20033;-61
2023/03/13 07:12:17;;;;;;;8.80;4.80;;;;;;;;;;10373263;28;20030;-61
2023/03/13 07:17:18;;;;;;;14.73;4.97;;;;;;;;;;10372441;28;20029;-61
2023/03/13 07:22:19;;;;;;;9.98;4.30;;;;;;;;;;10372684;28;20122;-62
2023/03/13 07:27:20;;;;;;;6.72;4.00;;;;;;;;;;10373745;28;20029;-60
2023/03/13 07:32:21;;;;;;;11.55;4.05;;;;;;;;;;10373263;28;20057;-61
2023/03/13 07:37:21;;;;;;;13.95;4.60;;;;;;;;;;10372974;28;20034;-61
2023/03/13 07:42:22;;;;;;;10.80;4.03;;;;;;;;;;10372537;28;20547;-61
2023/03/13 07:47:23;;;;;;;7.40;4.05;;;;;;;;;;10372161;28;20065;-60
2023/03/13 07:52:25;;;;;;;5.55;3.72;;;;;;;;;;10372102;28;20026;-61
2023/03/13 07:57:25;;;;;;;6.70;3.97;;;;;;;;;;10372301;28;20045;-60
2023/03/13 08:02:26;;;;;;;18.63;4.10;;;;;;;;;;10371613;28;20034;-60
2023/03/13 08:07:27;;;;;;;8.48;3.80;;;;;;;;;;10372070;28;20037;-59
2023/03/13 08:12:27;;;;;;;6.20;3.40;;;;;;;;;;10371292;28;20061;-58
2023/03/13 08:17:29;;;;;;;9.60;3.30;;;;;;;;;;10371183;28;20033;-60
2023/03/13 08:22:29;;;;;;;10.60;3.75;;;;;;;;;;10370982;28;20386;-59
2023/03/13 08:27:30;;;;;;;6.85;3.97;;;;;;;;;;10370857;28;20045;-60
2023/03/13 08:32:35;;;;;;;10.20;3.65;;;;;;;;;;10370237;28;20026;-60
2023/03/13 08:37:36;;;;;;;4.45;3.13;;;;;;;;;;10369498;28;20061;-60
2023/03/13 08:42:37;;;;;;;7.75;3.20;;;;;;;;;;10370511;28;20025;-60
2023/03/13 08:47:38;;;;;;;5.90;3.30;;;;;;;;;;10369848;28;20057;-59
2023/03/13 08:52:38;;;;;;;6.03;3.88;;;;;;;;;;10370314;28;20036;-60
2023/03/13 08:57:39;;;;;;;5.22;2.90;;;;;;;;;;10369645;28;20486;-60
2023/03/13 09:02:39;;;;;;;6.35;3.10;;;;;;;;;;10369932;28;20030;-60
2023/03/13 09:07:40;;;;;;;3.47;3.13;;;;;;;;;;10369424;28;20381;-59
2023/03/13 09:12:41;;;;;;;3.78;3.08;;;;;;;;;;10369121;28;20366;-60
2023/03/13 09:17:42;;;;;;;4.75;3.20;;;;;;;;;;10369431;28;20384;-60
2023/03/13 09:22:42;;;;;;;4.57;3.38;;;;;;;;;;10369175;28;20022;-60
2023/03/13 09:27:43;;;;;;;11.95;3.80;;;;;;;;;;10368719;28;20014;-60
2023/03/13 09:32:43;;;;;;;3.95;2.80;;;;;;;;;;10368832;28;20073;-59
2023/03/13 09:37:44;;;;;;;4.63;2.97;;;;;;;;;;10368445;28;20038;-60
2023/03/13 09:43:00;;;;;;;4.60;2.53;;;;;;;;;;10367970;28;20042;-60
2023/03/13 09:48:23;;;;;;;10.27;3.38;;;;;;;;;;10367726;28;20041;-60
2023/03/13 09:53:39;;;;;;;3.30;2.97;;;;;;;;;;10367863;28;20029;-60
2023/03/13 09:58:48;;;;;;;8.80;3.28;;;;;;;;;;10366562;28;20022;-60
2023/03/13 10:04:02;;;;;;;4.47;2.80;;;;;;;;;;10351088;28;20109;-60
2023/03/13 10:09:04;;;;;;;3.45;2.88;;;;;;;;;;10366728;28;20026;-60
2023/03/13 10:14:30;;;;;;;4.78;3.13;;;;;;;;;;10363075;28;20107;-59
2023/03/13 10:19:41;;;;;;;5.07;3.20;;;;;;;;;;10367668;28;20072;-60
2023/03/13 10:24:53;;;;;;;5.10;2.97;;;;;;;;;;10367717;28;20034;-59
2023/03/13 10:29:54;;;;;;;9.88;3.47;;;;;;;;;;10366595;28;20101;-60
2023/03/13 10:35:00;;;;;;;3.38;2.83;;;;;;;;;;10367751;28;20437;-61
2023/03/13 10:40:24;;;;;;;3.10;2.75;;;;;;;;;;10367242;28;20038;-61
2023/03/13 10:45:24;;;;;;;4.95;3.00;;;;;;;;;;10367361;28;20108;-61
2023/03/13 10:50:31;;;;;;;4.28;3.22;;;;;;;;;;10367284;28;20108;-61
2023/03/13 10:55:31;;;;;;;5.13;2.90;;;;;;;;;;10372763;28;20388;-60
2023/03/13 11:00:38;;;;;;;7.10;3.05;;;;;;;;;;10373987;28;20030;-61
2023/03/13 11:05:42;;;;;;;4.55;2.80;;;;;;;;;;10374292;28;20068;-60
2023/03/13 11:10:55;;;;;;;3.45;2.85;;;;;;;;;;10373722;28;20034;-60
2023/03/13 11:16:10;;;;;;;6.20;2.90;;;;;;;;;;10370154;28;20049;-60
2023/03/13 11:21:36;;;;;;;4.60;2.80;;;;;;;;;;10369217;28;20068;-59
2023/03/13 11:27:06;;;;;;;3.33;2.40;;;;;;;;;;10372223;28;20077;-59
2023/03/13 11:32:41;;;;;;;6.63;3.50;;;;;;;;;;10371834;28;20385;-61
2023/03/13 11:37:43;;;;;;;3.95;2.70;;;;;;;;;;10371579;28;20379;-60
2023/03/13 11:42:58;;;;;;;3.45;2.47;;;;;;;;;;10372534;28;20048;-60
2023/03/13 11:48:14;;;;;;;3.28;2.55;;;;;;;;;;10372236;28;20050;-59
2023/03/13 11:53:27;;;;;;;6.18;2.70;;;;;;;;;;10372734;28;20085;-61
2023/03/13 11:59:13;;;;;;;2.65;2.30;;;;;;;;;;10371969;28;20113;-61
2023/03/13 12:04:29;;;;;;;3.20;2.53;;;;;;;;;;10371466;28;20033;-61
2023/03/13 12:09:51;;;;;;;4.57;2.50;;;;;;;;;;10371119;28;20528;-61
2023/03/13 12:15:13;;;;;;;3.17;2.38;;;;;;;;;;10370689;28;20030;-61
2023/03/13 12:20:48;;;;;;;4.78;2.47;;;;;;;;;;10369871;28;20074;-61
2023/03/13 12:25:59;;;;;;;3.55;2.60;;;;;;;;;;10348106;28;20034;-61
2023/03/13 12:31:24;;;;;;;3.80;2.45;;;;;;;;;;10370784;28;20112;-61
2023/03/13 12:36:45;;;;;;;2.70;2.30;;;;;;;;;;10369355;28;20105;-61
2023/03/13 12:42:27;;;;;;;2.78;2.33;;;;;;;;;;10369131;28;20116;-61
2023/03/13 12:47:45;;;;;;;2.97;2.22;;;;;;;;;;10369606;28;20052;-61
2023/03/13 12:53:16;;;;;;;3.42;2.30;;;;;;;;;;10370240;28;20037;-61
2023/03/13 12:58:43;;;;;;;2.63;2.25;;;;;;;;;;10369910;28;20045;-61
2023/03/13 13:04:01;;;;;;;4.68;2.67;;;;;;;;;;10369399;28;20034;-61
2023/03/13 13:09:17;;;;;;;3.65;2.47;;;;;;;;;;10370669;28;20021;-60
2023/03/13 13:14:18;;;;;;;3.28;2.20;;;;;;;;;;10368485;28;20093;-61
2023/03/13 13:19:43;;;;;;;3.97;2.47;;;;;;;;;;10368482;28;20030;-61
2023/03/13 13:24:59;;;;;;;2.42;2.22;;;;;;;;;;10364650;28;20447;-61
2023/03/13 13:30:18;;;;;;;3.72;2.50;;;;;;;;;;10364894;28;20061;-61
2023/03/13 13:35:28;;;;;;;2.28;2.08;;;;;;;;;;10368209;28;20018;-60
2023/03/13 13:40:30;;;;;;;4.25;2.25;;;;;;;;;;10367722;28;20033;-60
2023/03/13 13:45:34;;;;;;;2.55;2.35;;;;;;;;;;10366578;28;20418;-60
2023/03/13 13:50:34;;;;;;;3.80;2.10;;;;;;;;;;10367211;28;20029;-60
2023/03/13 13:55:38;;;;;;;2.55;2.25;;;;;;;;;;10367339;28;20029;-60
2023/03/13 14:00:59;;;;;;;5.90;2.50;;;;;;;;;;10366954;28;20034;-59
2023/03/13 14:06:11;;;;;;;4.38;2.40;;;;;;;;;;10366513;28;20022;-60
2023/03/13 14:11:30;;;;;;;4.95;2.47;;;;;;;;;;10368230;28;20029;-60
2023/03/13 14:16:30;;;;;;;;;;;;;;;;;;10366784;28;20041;-59
2023/03/13 14:21:32;;;;;;;2.63;2.20;;;;;;;;;;10367847;28;20012;-60
2023/03/13 14:26:43;;;;;;;2.45;1.83;;;;;;;;;;10363895;28;20447;-60
2023/03/13 14:31:54;;;;;;;2.78;1.80;;;;;;;;;;10375407;28;20127;-60
2023/03/13 14:36:58;;;;;;;2.63;2.00;;;;;;;;;;10371539;28;20034;-60
2023/03/13 14:42:10;;;;;;;3.80;2.10;;;;;;;;;;10375288;28;20034;-59
2023/03/13 14:47:29;;;;;;;2.20;1.70;;;;;;;;;;10374436;28;20128;-60
2023/03/13 14:52:32;;;;;;;3.42;2.05;;;;;;;;;;10374636;28;20037;-60
2023/03/13 14:57:34;;;;;;;3.80;2.05;;;;;;;;;;10374893;28;20144;-59
2023/03/13 15:02:34;;;;;;;2.58;2.10;;;;;;;;;;10374859;28;20033;-59
2023/03/13 15:07:46;;;;;;;3.72;2.25;;;;;;;;;;10374187;28;20037;-60
2023/03/13 15:12:47;;;;;;;2.75;2.05;;;;;;;;;;10372493;28;20030;-60
2023/03/13 15:17:48;;;;;;;3.15;2.08;;;;;;;;;;10372335;28;20032;-60
2023/03/13 15:22:48;;;;;;;9.05;2.00;;;;;;;;;;10372150;28;20036;-60
2023/03/13 15:27:49;;;;;;;4.57;1.83;;;;;;;;;;10373255;28;20030;-60
2023/03/13 15:32:50;;;;;;;4.40;2.33;;;;;;;;;;10369705;28;20305;-60
2023/03/13 15:37:51;;;;;;;1.95;1.70;;;;;;;;;;10369482;28;20121;-60
2023/03/13 15:42:53;;;;;;;2.58;2.10;;;;;;;;;;10372163;28;20034;-60
2023/03/13 15:47:54;;;;;;;3.80;2.10;;;;;;;;;;10372447;28;20042;-60
2023/03/13 15:52:55;;;;;;;3.95;2.00;;;;;;;;;;10372897;28;20026;-61
2023/03/13 15:57:56;;;;;;;2.85;2.00;;;;;;;;;;10372462;28;20033;-61
2023/03/13 16:02:56;;;;;;;5.00;2.25;;;;;;;;;;10371999;28;20030;-61
2023/03/13 16:07:57;;;;;;;2.80;2.00;;;;;;;;;;10371676;28;20034;-59
2023/03/13 16:12:58;;;;;;;2.85;1.80;;;;;;;;;;10372129;28;20085;-60
2023/03/13 16:17:58;;;;;;;2.88;1.90;;;;;;;;;;10371168;28;20077;-61
2023/03/13 16:23:02;;;;;;;2.53;2.10;;;;;;;;;;10370852;28;20034;-61
2023/03/13 16:28:06;;;;;;;5.07;2.30;;;;;;;;;;10371740;28;20032;-61
2023/03/13 16:33:06;;;;;;;2.97;1.70;;;;;;;;;;10371371;28;20025;-61
2023/03/13 16:38:10;;;;;;;2.58;1.77;;;;;;;;;;10370297;28;20500;-61
2023/03/13 16:43:11;;;;;;;3.88;2.10;;;;;;;;;;10368871;28;20029;-60
2023/03/13 16:48:17;;;;;;;5.45;1.98;;;;;;;;;;10369564;28;20044;-60
2023/03/13 16:53:18;;;;;;;3.80;1.95;;;;;;;;;;10368139;28;20433;-61
2023/03/13 16:58:18;;;;;;;3.00;1.70;;;;;;;;;;10369473;28;20036;-59
2023/03/13 17:03:19;;;;;;;2.85;1.73;;;;;;;;;;10369383;28;20026;-60
2023/03/13 17:08:19;;;;;;;2.67;1.90;;;;;;;;;;10369793;28;20022;-59
2023/03/13 17:13:22;;;;;;;2.35;1.70;;;;;;;;;;10369366;28;20029;-59
2023/03/13 17:18:23;;;;;;;4.53;2.00;;;;;;;;;;10369530;28;20034;-60
2023/03/13 17:23:23;;;;;;;3.35;1.98;;;;;;;;;;10367847;28;20497;-59
2023/03/13 17:28:24;;;;;;;2.40;1.42;;;;;;;;;;10368912;28;20390;-61
2023/03/13 17:33:24;;;;;;;2.75;1.80;;;;;;;;;;10368785;28;20670;-60
2023/03/13 17:38:25;;;;;;;2.72;1.70;;;;;;;;;;10369136;28;20469;-59
2023/03/13 17:43:26;;;;;;;2.85;1.88;;;;;;;;;;10368419;28;20017;-59
2023/03/13 17:48:26;;;;;;;4.05;1.52;;;;;;;;;;10367202;28;20185;-60
2023/03/13 17:53:27;;;;;;;2.38;1.67;;;;;;;;;;10367337;28;20382;-60
2023/03/13 17:58:27;;;;;;;3.63;2.33;;;;;;;;;;10368115;28;20034;-60
2023/03/13 18:03:28;;;;;;;4.50;1.92;;;;;;;;;;10367527;28;20297;-59
2023/03/13 18:08:28;;;;;;;11.38;2.00;;;;;;;;;;10364038;28;20041;-60
2023/03/13 18:13:29;;;;;;;2.45;1.90;;;;;;;;;;10366630;28;20022;-60
2023/03/13 18:18:30;;;;;;;7.80;2.10;;;;;;;;;;10367398;28;20053;-60
2023/03/13 18:23:30;;;;;;;3.28;1.90;;;;;;;;;;10367204;28;20072;-60
2023/03/13 18:28:31;;;;;;;4.75;1.90;;;;;;;;;;10366167;28;20034;-60
2023/03/13 18:33:31;;;;;;;2.20;1.73;;;;;;;;;;10366631;28;20034;-60
2023/03/13 18:38:32;;;;;;;4.28;1.88;;;;;;;;;;10365932;28;20037;-60
2023/03/13 18:43:33;;;;;;;3.60;2.00;;;;;;;;;;10366111;28;20033;-60
2023/03/13 18:48:33;;;;;;;3.25;1.75;;;;;;;;;;10366391;28;20042;-60
2023/03/13 18:53:35;;;;;;;2.33;1.80;;;;;;;;;;10366985;28;20037;-61
2023/03/13 18:58:35;;;;;;;5.82;2.20;;;;;;;;;;10366497;28;20488;-60
2023/03/13 19:03:36;;;;;;;4.85;2.05;;;;;;;;;;10366271;28;20029;-60
2023/03/13 19:08:36;;;;;;;5.68;2.40;;;;;;;;;;10366626;28;20394;-60
2023/03/13 19:13:37;;;;;;;4.32;2.60;;;;;;;;;;10368012;28;20401;-60
2023/03/13 19:18:38;;;;;;;4.20;2.58;;;;;;;;;;10373283;28;20501;-59
2023/03/13 19:23:38;;;;;;;5.93;2.30;;;;;;;;;;10373971;28;20033;-59
2023/03/13 19:28:39;;;;;;;8.23;2.80;;;;;;;;;;10373573;28;20030;-59
2023/03/13 19:33:40;;;;;;;3.25;2.50;;;;;;;;;;10373474;28;20025;-59
2023/03/13 19:38:41;;;;;;;9.40;2.80;;;;;;;;;;10371718;28;20037;-60
2023/03/13 19:43:42;;;;;;;5.15;2.72;;;;;;;;;;10372117;28;20536;-60
2023/03/13 19:48:43;;;;;;;9.40;3.05;;;;;;;;;;10371553;28;20037;-59
2023/03/13 19:53:44;;;;;;;5.53;2.85;;;;;;;;;;10369741;28;20076;-60
2023/03/13 19:58:48;;;;;;;4.95;2.53;;;;;;;;;;10372288;28;20032;-59
2023/03/13 20:03:48;;;;;;;4.30;2.60;;;;;;;;;;10371291;28;20049;-60
2023/03/13 20:09:08;;;;;;;5.40;2.72;;;;;;;;;;10371817;28;20036;-58
2023/03/13 20:14:16;;;;;;;8.85;2.80;;;;;;;;;;10372217;28;20397;-58
2023/03/13 20:19:17;;;;;;;5.68;2.97;;;;;;;;;;10371265;28;20038;-59
2023/03/13 20:24:17;;;;;;;10.00;2.83;;;;;;;;;;10371405;28;20469;-59
2023/03/13 20:29:18;;;;;;;4.03;2.22;;;;;;;;;;10370080;28;20496;-59
2023/03/13 20:34:18;;;;;;;9.32;3.60;;;;;;;;;;10370921;28;20465;-59
2023/03/13 20:39:19;;;;;;;4.40;2.90;;;;;;;;;;10370696;28;20492;-59
2023/03/13 20:44:19;;;;;;;12.50;3.40;;;;;;;;;;10369433;28;20050;-59
2023/03/13 20:49:21;;;;;;;5.97;2.83;;;;;;;;;;10368989;28;20045;-59
2023/03/13 20:54:22;;;;;;;3.63;2.75;;;;;;;;;;10370231;28;20045;-59
2023/03/13 20:59:22;;;;;;;5.68;2.83;;;;;;;;;;10370339;28;20040;-59
2023/03/13 21:04:23;;;;;;;7.38;2.83;;;;;;;;;;10368526;28;20470;-60
2023/03/13 21:09:24;;;;;;;16.83;5.85;;;;;;;;;;10367701;28;20033;-59
2023/03/13 21:14:24;;;;;;;17.80;4.25;;;;;;;;;;10369310;28;20018;-59
2023/03/13 21:19:25;;;;;;;12.75;3.70;;;;;;;;;;10368879;28;20034;-59
2023/03/13 21:24:25;;;;;;;11.27;3.42;;;;;;;;;;10368812;28;20030;-59
2023/03/13 21:29:26;;;;;;;13.30;3.05;;;;;;;;;;10369732;28;20025;-58
2023/03/13 21:34:26;;;;;;;12.65;3.63;;;;;;;;;;10368087;28;20029;-59
2023/03/13 21:39:27;;;;;;;14.23;3.53;;;;;;;;;;10367762;28;20033;-59
2023/03/13 21:44:31;;;;;;;9.40;3.00;;;;;;;;;;10366665;28;20096;-60
2023/03/13 21:49:31;;;;;;;21.55;3.65;;;;;;;;;;10367961;28;20504;-59
2023/03/13 21:54:32;;;;;;;13.00;3.42;;;;;;;;;;10368222;28;20029;-58
2023/03/13 21:59:33;;;;;;;11.57;3.33;;;;;;;;;;10367047;28;20025;-58
2023/03/13 22:04:33;;;;;;;14.90;3.42;;;;;;;;;;10366505;28;20036;-59
2023/03/13 22:09:34;;;;;;;14.52;3.60;;;;;;;;;;10368352;28;20184;-58
2023/03/13 22:14:35;;;;;;;11.38;3.13;;;;;;;;;;10366723;28;20386;-60
2023/03/13 22:19:35;;;;;;;7.78;3.50;;;;;;;;;;10366465;28;20041;-59
2023/03/13 22:24:36;;;;;;;8.85;2.97;;;;;;;;;;10365825;28;20033;-59
2023/03/13 22:29:37;;;;;;;8.02;3.75;;;;;;;;;;10367350;28;20028;-59
2023/03/13 22:34:43;;;;;;;6.97;3.08;;;;;;;;;;10367583;28;20026;-59
2023/03/13 22:39:44;;;;;;;8.05;3.88;;;;;;;;;;10367548;28;20110;-59
2023/03/13 22:44:44;;;;;;;6.10;2.78;;;;;;;;;;10367415;28;20450;-59
2023/03/13 22:49:45;;;;;;;6.97;2.78;;;;;;;;;;10371039;28;20026;-60
2023/03/13 22:54:46;;;;;;;8.15;3.08;;;;;;;;;;10374582;28;20034;-60
2023/03/13 22:59:46;;;;;;;5.45;2.83;;;;;;;;;;10374703;28;20041;-60
2023/03/13 23:04:47;;;;;;;4.20;2.75;;;;;;;;;;10364998;28;20175;-59
2023/03/13 23:09:47;;;;;;;9.35;2.70;;;;;;;;;;10373749;28;20039;-60
2023/03/13 23:14:48;;;;;;;10.00;3.13;;;;;;;;;;10371401;28;20371;-60
2023/03/13 23:19:48;;;;;;;6.55;2.72;;;;;;;;;;10371387;28;20125;-59
2023/03/13 23:24:52;;;;;;;5.28;2.60;;;;;;;;;;10371499;28;20026;-59
2023/03/13 23:29:54;;;;;;;6.95;2.53;;;;;;;;;;10373437;28;20050;-59
2023/03/13 23:34:54;;;;;;;6.63;2.80;;;;;;;;;;10373408;28;20061;-59
2023/03/13 23:39:55;;;;;;;6.28;2.67;;;;;;;;;;10372886;28;20490;-59
2023/03/13 23:44:56;;;;;;;4.25;2.60;;;;;;;;;;10373049;28;20061;-59
2023/03/13 23:49:56;;;;;;;7.43;2.92;;;;;;;;;;10372498;28;20030;-59
2023/03/13 23:54:57;;;;;;;5.82;2.78;;;;;;;;;;10372413;28;20061;-60
